Time;durP1;ratioP1;P1;durP2;ratioP2;P2;SDS_P1;SDS_P2;PMS_P1;PMS_P2;Temp;Humidity;BMP_temperature;BMP_pressure;BME280_temperature;BME280_humidity;BME280_pressure;Samples;Min_cycle;Max_cycle;Signal;HPM_P1;HPM_P2
2020/12/11 00:00:29;;;;;;;18.93;13.60;;;8.90;56.90;;;;;;5013050;28;20198;-40
2020/12/11 00:02:55;;;;;;;18.63;13.80;;;8.90;56.80;;;;;;5013972;28;20198;-39
2020/12/11 00:05:21;;;;;;;20.47;14.20;;;9.00;56.90;;;;;;5013274;28;20202;-39
2020/12/11 00:07:46;;;;;;;22.20;14.47;;;8.80;56.70;;;;;;5012512;28;20197;-39
2020/12/11 00:10:14;;;;;;;18.77;14.17;;;8.70;57.20;;;;;;5013351;28;20190;-39
2020/12/11 00:12:40;;;;;;;21.33;14.60;;;8.80;57.20;;;;;;5011987;28;20309;-39
2020/12/11 00:15:07;;;;;;;21.20;15.10;;;8.80;57.20;;;;;;5013241;28;20943;-39
2020/12/11 00:17:33;;;;;;;19.90;13.57;;;8.90;57.40;;;;;;5012269;28;20495;-39
2020/12/11 00:19:59;;;;;;;20.27;13.23;;;8.80;57.20;;;;;;5012977;28;20936;-39
2020/12/11 00:22:24;;;;;;;20.87;13.60;;;8.90;57.30;;;;;;5010758;28;20494;-39
2020/12/11 00:24:50;;;;;;;18.60;13.20;;;8.90;57.20;;;;;;5012616;28;20190;-39
2020/12/11 00:27:16;;;;;;;19.10;13.50;;;8.90;57.00;;;;;;5012758;28;20218;-39
2020/12/11 00:29:42;;;;;;;18.03;13.47;;;8.80;56.90;;;;;;5027297;28;20515;-39
2020/12/11 00:32:08;;;;;;;20.63;13.80;;;8.70;57.50;;;;;;5012905;28;20432;-39
2020/12/11 00:34:34;;;;;;;17.30;13.57;;;8.70;57.60;;;;;;5013331;28;20264;-39
2020/12/11 00:37:00;;;;;;;21.83;15.37;;;8.70;57.40;;;;;;5012162;28;20489;-39
2020/12/11 00:39:26;;;;;;;20.20;13.97;;;8.70;57.30;;;;;;5012276;28;20230;-39
2020/12/11 00:41:51;;;;;;;18.40;13.13;;;8.80;57.20;;;;;;5012053;28;20517;-39
2020/12/11 00:44:17;;;;;;;18.63;14.53;;;8.80;56.90;;;;;;5012861;28;20281;-39
2020/12/11 00:46:43;;;;;;;17.30;13.33;;;8.80;57.00;;;;;;5011163;28;20194;-39
2020/12/11 00:49:08;;;;;;;18.60;14.13;;;8.90;57.00;;;;;;5011983;28;20237;-39
2020/12/11 00:51:34;;;;;;;19.63;14.33;;;9.00;56.90;;;;;;5009962;28;20667;-39
2020/12/11 00:54:00;;;;;;;19.67;14.70;;;9.00;56.60;;;;;;5012983;28;20202;-39
2020/12/11 00:56:25;;;;;;;19.70;14.40;;;9.10;56.50;;;;;;5011514;28;20239;-39
2020/12/11 00:58:51;;;;;;;22.07;16.30;;;9.10;56.30;;;;;;5011642;28;20256;-39
2020/12/11 01:01:17;;;;;;;19.10;13.90;;;9.20;56.10;;;;;;5011653;28;20630;-39
2020/12/11 01:03:43;;;;;;;19.47;14.30;;;9.20;56.00;;;;;;5012467;28;20198;-39
2020/12/11 01:06:08;;;;;;;21.37;14.23;;;9.20;56.00;;;;;;5011771;28;20272;-39
2020/12/11 01:08:34;;;;;;;21.70;15.33;;;9.20;55.90;;;;;;5011184;28;20528;-39
2020/12/11 01:11:00;;;;;;;20.60;15.20;;;9.10;55.90;;;;;;5011451;28;20202;-39
2020/12/11 01:13:26;;;;;;;22.23;14.43;;;9.10;56.10;;;;;;5012575;28;20208;-39
2020/12/11 01:15:51;;;;;;;19.00;13.50;;;8.80;56.30;;;;;;5011214;28;20433;-38
2020/12/11 01:18:17;;;;;;;18.80;13.50;;;8.20;57.50;;;;;;5009514;28;20194;-39
2020/12/11 01:20:42;;;;;;;17.70;13.73;;;8.10;58.00;;;;;;5009984;28;20217;-40
2020/12/11 01:23:08;;;;;;;17.60;12.97;;;8.10;58.30;;;;;;5011510;28;20197;-39
2020/12/11 01:25:33;;;;;;;18.30;13.37;;;8.20;58.10;;;;;;5015432;28;20198;-39
2020/12/11 01:27:59;;;;;;;22.10;15.13;;;8.10;58.00;;;;;;5010773;28;20284;-39
2020/12/11 01:30:25;;;;;;;20.27;14.00;;;7.80;58.60;;;;;;5012002;28;20214;-39
2020/12/11 01:32:50;;;;;;;18.10;13.23;;;7.60;59.40;;;;;;5010828;28;21577;-39
2020/12/11 01:35:16;;;;;;;17.77;13.53;;;7.40;59.10;;;;;;5011939;28;20213;-39
2020/12/11 01:37:41;;;;;;;18.57;14.03;;;7.30;59.50;;;;;;5010602;28;20222;-39
2020/12/11 01:40:07;;;;;;;19.20;13.87;;;7.50;59.60;;;;;;5012030;28;20194;-39
2020/12/11 01:42:32;;;;;;;20.43;14.00;;;7.60;59.20;;;;;;5011334;28;20289;-39
2020/12/11 01:44:58;;;;;;;19.70;14.27;;;7.80;58.60;;;;;;5011297;28;20197;-39
2020/12/11 01:47:24;;;;;;;16.50;13.57;;;7.50;58.70;;;;;;5007409;28;20712;-39
2020/12/11 01:49:52;;;;;;;18.77;13.33;;;7.50;58.80;;;;;;5011253;28;20234;-39
2020/12/11 01:52:19;;;;;;;20.63;14.33;;;7.50;58.90;;;;;;5011255;28;20571;-39
2020/12/11 01:54:46;;;;;;;17.97;12.60;;;7.60;58.70;;;;;;5011266;28;20786;-39
2020/12/11 01:57:23;;;;;;;19.10;14.60;;;7.50;58.60;;;;;;5009915;28;20487;-39
2020/12/11 01:59:53;;;;;;;19.67;13.40;;;7.40;58.90;;;;;;5011273;28;20444;-39
2020/12/11 02:02:20;;;;;;;19.13;14.13;;;7.10;59.70;;;;;;5014340;28;20803;-39
2020/12/11 02:04:46;;;;;;;19.20;14.10;;;7.00;59.90;;;;;;5010630;28;20429;-39
2020/12/11 02:07:12;;;;;;;20.37;14.13;;;6.90;59.80;;;;;;5010136;28;20520;-39
2020/12/11 02:09:38;;;;;;;18.27;14.13;;;6.90;60.00;;;;;;5004624;28;20555;-39
2020/12/11 02:12:04;;;;;;;22.37;16.00;;;7.10;59.80;;;;;;5010743;28;20216;-39
2020/12/11 02:14:30;;;;;;;18.80;13.67;;;7.20;59.40;;;;;;5009871;28;20460;-39
2020/12/11 02:17:00;;;;;;;19.00;14.33;;;7.20;59.50;;;;;;5010862;28;20507;-39
2020/12/11 02:19:29;;;;;;;18.23;14.00;;;7.40;59.30;;;;;;5010064;28;20441;-39
2020/12/11 02:21:57;;;;;;;19.40;14.73;;;7.60;58.60;;;;;;5010346;28;20943;-38
2020/12/11 02:24:23;;;;;;;19.83;13.83;;;7.60;58.30;;;;;;5010338;28;20453;-39
2020/12/11 02:26:53;;;;;;;20.70;15.20;;;7.50;58.40;;;;;;5010280;28;20445;-39
2020/12/11 02:29:18;;;;;;;19.33;13.97;;;7.50;58.50;;;;;;5010476;28;20560;-39
2020/12/11 02:31:44;;;;;;;22.27;15.07;;;7.50;58.50;;;;;;5010385;28;20441;-39
2020/12/11 02:34:09;;;;;;;21.00;14.80;;;7.60;58.60;;;;;;5011017;28;20201;-39
2020/12/11 02:36:35;;;;;;;19.93;14.20;;;7.40;58.50;;;;;;5009638;28;20588;-38
2020/12/11 02:39:01;;;;;;;19.47;13.50;;;7.20;59.00;;;;;;5010309;28;20197;-39
2020/12/11 02:41:26;;;;;;;19.23;14.40;;;7.10;59.10;;;;;;5008589;28;20599;-39
2020/12/11 02:43:52;;;;;;;16.87;13.63;;;7.00;59.10;;;;;;5010744;28;20209;-38
2020/12/11 02:46:17;;;;;;;20.03;15.00;;;6.90;59.50;;;;;;5009230;28;20736;-39
2020/12/11 02:48:43;;;;;;;21.77;15.27;;;6.90;59.70;;;;;;5009766;28;20324;-39
2020/12/11 02:51:10;;;;;;;19.00;14.57;;;6.80;59.50;;;;;;5009738;28;20194;-39
2020/12/11 02:53:35;;;;;;;18.23;14.30;;;6.70;59.40;;;;;;5010491;28;20198;-39
2020/12/11 02:56:01;;;;;;;20.13;13.50;;;6.70;59.50;;;;;;5010065;28;20822;-39
2020/12/11 02:58:27;;;;;;;17.80;13.90;;;6.50;59.60;;;;;;5010334;28;20185;-39
2020/12/11 03:00:52;;;;;;;17.87;13.33;;;6.50;60.60;;;;;;5009785;28;20202;-39
2020/12/11 03:03:18;;;;;;;18.20;13.47;;;6.50;60.70;;;;;;5009690;28;20190;-39
2020/12/11 03:05:43;;;;;;;18.97;12.47;;;6.10;61.30;;;;;;5010180;28;20277;-39
2020/12/11 03:08:09;;;;;;;17.93;13.47;;;6.10;62.10;;;;;;5010075;28;20264;-41
2020/12/11 03:10:34;;;;;;;18.13;13.00;;;5.90;62.90;;;;;;5012746;28;20569;-39
2020/12/11 03:13:00;;;;;;;16.63;12.83;;;5.80;63.70;;;;;;5011643;28;20189;-39
2020/12/11 03:15:25;;;;;;;18.20;13.93;;;6.10;63.40;;;;;;5014506;28;20190;-39
2020/12/11 03:17:51;;;;;;;19.17;14.03;;;6.20;62.60;;;;;;5013616;28;20257;-38
2020/12/11 03:20:22;;;;;;;17.90;13.67;;;6.10;62.30;;;;;;5012150;28;20614;-39
2020/12/11 03:22:52;;;;;;;17.43;13.93;;;6.00;62.40;;;;;;5012154;28;20198;-40
2020/12/11 03:25:18;;;;;;;22.90;15.40;;;5.70;63.70;;;;;;5011448;28;20536;-41
2020/12/11 03:27:44;;;;;;;21.67;15.83;;;5.80;63.50;;;;;;5013878;28;20523;-41
2020/12/11 03:30:10;;;;;;;24.70;15.73;;;5.70;64.00;;;;;;5013731;28;20425;-39
2020/12/11 03:32:37;;;;;;;18.33;13.07;;;6.10;63.40;;;;;;5013884;28;20244;-41
2020/12/11 03:35:02;;;;;;;19.10;14.23;;;6.20;62.10;;;;;;5013980;28;20444;-41
2020/12/11 03:37:28;;;;;;;17.23;13.10;;;6.50;61.30;;;;;;5011189;28;20976;-41
2020/12/11 03:39:53;;;;;;;20.27;13.70;;;6.80;60.40;;;;;;5014916;28;20646;-41
2020/12/11 03:42:19;;;;;;;19.27;13.00;;;7.10;59.90;;;;;;5008947;28;20206;-41
2020/12/11 03:44:45;;;;;;;17.70;12.77;;;7.30;59.30;;;;;;5014405;28;20201;-41
2020/12/11 03:47:10;;;;;;;17.20;11.97;;;7.40;58.70;;;;;;5015460;28;20601;-41
2020/12/11 03:49:36;;;;;;;18.60;13.23;;;7.40;58.20;;;;;;5013457;28;20238;-41
2020/12/11 03:52:01;;;;;;;18.40;12.10;;;7.40;57.90;;;;;;5012657;28;20701;-41
2020/12/11 03:54:27;;;;;;;17.87;12.83;;;7.50;57.80;;;;;;5013338;28;20201;-41
2020/12/11 03:56:53;;;;;;;16.50;12.20;;;7.60;57.50;;;;;;5013167;28;20225;-41
2020/12/11 03:59:18;;;;;;;18.33;12.07;;;7.60;57.30;;;;;;5013673;28;21084;-40
2020/12/11 04:01:44;;;;;;;18.27;13.00;;;7.60;57.20;;;;;;5013304;28;20226;-41
2020/12/11 04:04:09;;;;;;;15.80;12.17;;;7.70;57.00;;;;;;5012519;28;20194;-41
2020/12/11 04:06:35;;;;;;;16.60;12.70;;;7.70;56.80;;;;;;5011256;28;20281;-41
2020/12/11 04:09:00;;;;;;;17.13;12.60;;;7.70;56.50;;;;;;5013260;28;20285;-41
2020/12/11 04:11:26;;;;;;;15.77;12.63;;;7.70;56.40;;;;;;5013071;28;20198;-41
2020/12/11 04:13:52;;;;;;;18.33;13.37;;;7.40;56.10;;;;;;5008693;28;20649;-41
2020/12/11 04:16:17;;;;;;;18.70;12.70;;;7.30;56.50;;;;;;5008736;28;20236;-41
2020/12/11 04:18:43;;;;;;;19.37;14.00;;;7.30;56.80;;;;;;5012830;28;20277;-41
2020/12/11 04:21:13;;;;;;;15.87;12.73;;;7.20;57.00;;;;;;5011865;28;20251;-40
2020/12/11 04:23:39;;;;;;;18.37;13.17;;;7.20;57.10;;;;;;5013238;28;20198;-41
2020/12/11 04:26:05;;;;;;;19.47;12.70;;;7.00;57.20;;;;;;5012009;28;20448;-41
2020/12/11 04:28:30;;;;;;;17.17;12.53;;;6.80;57.50;;;;;;5012809;28;20912;-41
2020/12/11 04:30:56;;;;;;;17.80;12.20;;;6.90;58.00;;;;;;5012699;28;20201;-41
2020/12/11 04:33:22;;;;;;;17.83;13.40;;;6.90;57.60;;;;;;5011741;28;20277;-40
2020/12/11 04:35:47;;;;;;;18.10;13.23;;;6.90;57.90;;;;;;5012343;28;20208;-40
2020/12/11 04:38:13;;;;;;;19.00;13.57;;;6.80;57.60;;;;;;5011598;28;20949;-41
2020/12/11 04:40:38;;;;;;;19.83;12.63;;;6.40;58.00;;;;;;5012936;28;20202;-40
2020/12/11 04:43:08;;;;;;;19.53;13.70;;;6.20;59.40;;;;;;5011726;28;20205;-41
2020/12/11 04:45:35;;;;;;;18.10;12.93;;;6.10;59.70;;;;;;5012609;28;20558;-41
2020/12/11 04:48:01;;;;;;;21.50;15.20;;;6.20;60.00;;;;;;5010287;28;20429;-41
2020/12/11 04:50:27;;;;;;;19.73;13.83;;;6.30;59.40;;;;;;5013150;28;20520;-40
2020/12/11 04:52:55;;;;;;;20.47;12.87;;;6.30;59.30;;;;;;5012194;28;20198;-41
2020/12/11 04:55:21;;;;;;;22.30;14.70;;;6.40;59.20;;;;;;5011952;28;20448;-41
2020/12/11 04:57:51;;;;;;;20.93;14.07;;;6.40;59.00;;;;;;5011770;28;20488;-40
2020/12/11 05:00:23;;;;;;;19.40;13.77;;;6.40;59.00;;;;;;5010485;28;20206;-41
2020/12/11 05:02:49;;;;;;;18.30;13.27;;;6.50;59.20;;;;;;5012342;28;20507;-41
2020/12/11 05:05:16;;;;;;;19.83;13.67;;;6.70;58.70;;;;;;5012500;28;20524;-39
2020/12/11 05:07:43;;;;;;;20.23;13.40;;;6.80;58.30;;;;;;5010320;28;20775;-41
2020/12/11 05:10:10;;;;;;;20.23;14.50;;;6.90;57.80;;;;;;5011694;28;20449;-41
2020/12/11 05:12:36;;;;;;;18.07;13.23;;;6.90;57.50;;;;;;5011758;28;20524;-41
2020/12/11 05:15:10;;;;;;;19.63;13.90;;;7.00;57.40;;;;;;5011829;28;20436;-41
2020/12/11 05:17:39;;;;;;;18.20;13.13;;;7.10;57.20;;;;;;5011451;28;20484;-41
2020/12/11 05:20:10;;;;;;;20.00;14.87;;;7.00;56.80;;;;;;5012394;28;20439;-41
2020/12/11 05:22:40;;;;;;;21.03;14.33;;;7.10;56.70;;;;;;5009288;28;20440;-41
2020/12/11 05:25:13;;;;;;;20.50;15.77;;;7.10;56.60;;;;;;5012341;28;20424;-41
2020/12/11 05:27:41;;;;;;;19.60;13.30;;;6.90;57.00;;;;;;5005098;28;20571;-40
2020/12/11 05:30:07;;;;;;;20.10;13.97;;;6.70;57.20;;;;;;5011276;28;20441;-41
2020/12/11 05:32:45;;;;;;;18.50;13.70;;;6.60;57.20;;;;;;5009643;28;20452;-41
2020/12/11 05:35:17;;;;;;;21.03;13.83;;;6.50;57.20;;;;;;5006370;28;20196;-41
2020/12/11 05:37:50;;;;;;;19.50;14.00;;;6.40;57.70;;;;;;5010319;28;20496;-43
2020/12/11 05:40:17;;;;;;;21.87;14.83;;;6.20;58.00;;;;;;5011915;28;20441;-40
2020/12/11 05:42:42;;;;;;;19.20;14.17;;;6.20;58.40;;;;;;5010583;28;20444;-41
2020/12/11 05:45:18;;;;;;;21.43;14.77;;;6.20;58.50;;;;;;5011564;28;20829;-41
2020/12/11 05:47:44;;;;;;;18.97;14.03;;;6.20;58.80;;;;;;5005280;28;20197;-41
2020/12/11 05:50:10;;;;;;;22.17;15.53;;;6.20;58.70;;;;;;5011793;28;20487;-41
2020/12/11 05:52:36;;;;;;;22.67;14.50;;;6.30;58.80;;;;;;5010953;28;20452;-41
2020/12/11 05:55:02;;;;;;;21.70;15.97;;;6.50;58.60;;;;;;5011650;28;20901;-40
2020/12/11 05:57:32;;;;;;;24.40;15.80;;;6.60;58.20;;;;;;5008873;28;20225;-41
2020/12/11 05:59:59;;;;;;;19.93;14.80;;;6.70;57.90;;;;;;5011484;28;20428;-41
2020/12/11 06:02:25;;;;;;;27.47;15.93;;;6.70;57.50;;;;;;4998001;28;20951;-41
2020/12/11 06:04:51;;;;;;;21.57;14.20;;;6.80;57.30;;;;;;5011159;28;20425;-40
2020/12/11 06:07:25;;;;;;;22.37;14.87;;;6.80;57.80;;;;;;5010125;28;20436;-41
2020/12/11 06:09:51;;;;;;;22.03;15.20;;;6.80;57.20;;;;;;5011043;28;20536;-40
2020/12/11 06:12:30;;;;;;;23.10;15.53;;;6.60;57.00;;;;;;5010534;28;20527;-41
2020/12/11 06:15:07;;;;;;;19.53;12.53;;;6.40;57.80;;;;;;5010547;28;20459;-41
2020/12/11 06:18:15;;;;;;;19.30;12.33;;;6.30;57.80;;;;;;5007017;28;20605;-41
2020/12/11 06:20:41;;;;;;;19.57;12.90;;;6.50;61.10;;;;;;5009960;28;20444;-42
2020/12/11 06:23:25;;;;;;;21.30;14.20;;;6.90;61.00;;;;;;5010127;28;20437;-41
2020/12/11 06:25:54;;;;;;;22.03;15.67;;;7.00;58.10;;;;;;5009217;28;20436;-41
2020/12/11 06:28:35;;;;;;;19.30;13.27;;;6.80;58.50;;;;;;5010312;28;20433;-40
2020/12/11 06:31:02;;;;;;;22.30;15.50;;;6.50;59.30;;;;;;5009295;28;20461;-41
2020/12/11 06:33:32;;;;;;;19.90;13.60;;;6.40;59.00;;;;;;5010915;28;20468;-41
2020/12/11 06:35:59;;;;;;;21.53;14.57;;;6.30;59.00;;;;;;5010327;28;20479;-41
2020/12/11 06:39:02;;;;;;;21.10;14.73;;;6.30;59.40;;;;;;5010048;28;20493;-41
2020/12/11 06:41:27;;;;;;;20.50;14.50;;;6.30;59.50;;;;;;5009972;28;20464;-41
2020/12/11 06:44:09;;;;;;;19.27;13.47;;;6.30;59.00;;;;;;5010358;28;20797;-41
2020/12/11 06:46:34;;;;;;;21.27;13.70;;;6.20;59.10;;;;;;5010223;28;20198;-41
2020/12/11 06:49:22;;;;;;;21.33;15.63;;;6.10;59.30;;;;;;5009866;28;20481;-41
2020/12/11 06:51:47;;;;;;;18.40;14.23;;;6.00;58.60;;;;;;5001617;28;20210;-41
2020/12/11 06:54:16;;;;;;;21.20;14.40;;;5.90;58.90;;;;;;5010399;28;20436;-41
2020/12/11 06:56:46;;;;;;;22.90;14.87;;;6.00;58.80;;;;;;5010213;28;20665;-41
2020/12/11 06:59:39;;;;;;;23.47;14.50;;;5.90;58.90;;;;;;5014911;28;20440;-41
2020/12/11 07:02:08;;;;;;;23.87;14.90;;;5.90;59.00;;;;;;5019891;28;20461;-41
2020/12/11 07:04:52;;;;;;;19.17;13.63;;;5.80;59.00;;;;;;5009358;28;20445;-41
2020/12/11 07:07:24;;;;;;;19.27;14.17;;;5.60;59.30;;;;;;5008056;28;20440;-41
2020/12/11 07:09:53;;;;;;;22.20;14.43;;;5.50;60.10;;;;;;5004751;28;20433;-41
2020/12/11 07:12:18;;;;;;;21.33;14.60;;;5.50;60.20;;;;;;5009792;28;20448;-41
2020/12/11 07:14:45;;;;;;;22.20;15.10;;;5.40;60.70;;;;;;5010992;28;20425;-39
2020/12/11 07:17:22;;;;;;;21.30;14.70;;;5.30;60.80;;;;;;5009426;28;20226;-39
2020/12/11 07:19:48;;;;;;;25.17;16.13;;;5.30;61.10;;;;;;5008658;28;20437;-39
2020/12/11 07:22:13;;;;;;;26.00;15.87;;;5.30;60.60;;;;;;5009811;28;20510;-40
2020/12/11 07:24:39;;;;;;;25.27;15.60;;;5.50;60.70;;;;;;5013155;28;20947;-40
2020/12/11 07:27:06;;;;;;;23.50;16.97;;;5.80;60.20;;;;;;5026871;28;20229;-39
2020/12/11 07:29:32;;;;;;;18.30;14.80;;;6.00;59.10;;;;;;5006679;28;20468;-39
2020/12/11 07:31:58;;;;;;;20.60;13.93;;;6.10;59.40;;;;;;5010081;28;20433;-40
2020/12/11 07:34:25;;;;;;;22.20;15.87;;;6.30;58.40;;;;;;5010504;28;20936;-40
2020/12/11 07:36:56;;;;;;;23.57;15.07;;;6.30;58.10;;;;;;5009267;28;20229;-39
2020/12/11 07:39:27;;;;;;;18.87;14.30;;;6.30;58.00;;;;;;5010630;28;20491;-39
2020/12/11 07:41:54;;;;;;;22.77;15.67;;;6.40;57.60;;;;;;5001244;28;20428;-39
2020/12/11 07:44:25;;;;;;;23.03;15.13;;;6.00;58.10;;;;;;5010088;28;20437;-39
2020/12/11 07:46:52;;;;;;;22.47;15.30;;;6.10;58.40;;;;;;5007990;28;20440;-39
2020/12/11 07:49:18;;;;;;;25.40;17.07;;;6.00;57.90;;;;;;5009624;28;20538;-40
2020/12/11 07:51:47;;;;;;;23.10;14.70;;;6.00;58.20;;;;;;5009724;28;20920;-40
2020/12/11 07:54:13;;;;;;;24.60;14.27;;;6.40;58.10;;;;;;5010194;28;20920;-39
2020/12/11 07:56:39;;;;;;;28.67;15.03;;;6.60;57.10;;;;;;5011954;28;20488;-40
2020/12/11 07:59:15;;;;;;;20.87;13.87;;;6.80;56.40;;;;;;5013799;28;20436;-39
2020/12/11 08:01:46;;;;;;;23.70;15.47;;;6.50;55.90;;;;;;5013361;28;20432;-40
2020/12/11 08:04:15;;;;;;;20.00;14.53;;;6.50;56.40;;;;;;5012759;28;20844;-39
2020/12/11 08:06:41;;;;;;;24.70;16.77;;;6.20;56.60;;;;;;5011349;28;20433;-39
2020/12/11 08:09:13;;;;;;;24.70;15.63;;;5.90;57.30;;;;;;5007290;28;20436;-39
2020/12/11 08:11:43;;;;;;;21.47;15.17;;;5.90;57.90;;;;;;5012458;28;20655;-39
2020/12/11 08:14:09;;;;;;;23.03;15.60;;;5.70;57.90;;;;;;5011312;28;21261;-39
2020/12/11 08:16:35;;;;;;;24.50;14.83;;;6.00;58.10;;;;;;5011411;28;20484;-39
2020/12/11 08:19:01;;;;;;;21.07;14.20;;;6.30;57.10;;;;;;5013196;28;20198;-40
2020/12/11 08:21:31;;;;;;;24.43;16.10;;;6.20;57.20;;;;;;5011579;28;20822;-40
2020/12/11 08:23:57;;;;;;;22.20;14.90;;;6.40;57.10;;;;;;5012747;28;20480;-40
2020/12/11 08:26:23;;;;;;;26.53;16.77;;;6.70;56.70;;;;;;5012266;28;20429;-40
2020/12/11 08:29:10;;;;;;;21.70;14.57;;;7.00;56.00;;;;;;5013216;28;20263;-40
2020/12/11 08:31:39;;;;;;;25.93;15.60;;;7.30;55.60;;;;;;5010603;28;20449;-40
2020/12/11 08:34:09;;;;;;;20.60;13.83;;;7.70;54.60;;;;;;5008397;28;20510;-39
2020/12/11 08:36:38;;;;;;;19.90;13.70;;;7.90;53.90;;;;;;5012208;28;20519;-40
2020/12/11 08:39:06;;;;;;;22.90;14.80;;;7.90;53.10;;;;;;5012986;28;20971;-39
2020/12/11 08:41:33;;;;;;;22.57;16.17;;;7.80;53.50;;;;;;5009926;28;20451;-39
2020/12/11 08:44:00;;;;;;;25.77;16.50;;;7.40;53.70;;;;;;5012957;28;20985;-39
2020/12/11 08:49:47;;;;;;;19.60;13.50;;;7.00;55.10;;;;;;4977520;28;21004;-39
2020/12/11 08:52:13;;;;;;;23.27;16.23;;;6.90;55.50;;;;;;5007474;28;20449;-39
2020/12/11 08:54:39;;;;;;;26.00;16.33;;;6.90;54.90;;;;;;5010426;28;20449;-39
2020/12/11 08:57:05;;;;;;;23.77;15.43;;;7.20;55.40;;;;;;5011161;28;20476;-39
2020/12/11 08:59:31;;;;;;;24.17;16.10;;;7.60;54.70;;;;;;5002493;28;20190;-39
2020/12/11 09:01:56;;;;;;;20.43;14.73;;;7.60;54.00;;;;;;5011692;28;20425;-39
2020/12/11 09:04:22;;;;;;;21.90;15.40;;;7.50;53.90;;;;;;5008753;28;20269;-39
2020/12/11 09:06:47;;;;;;;23.73;15.70;;;7.40;54.30;;;;;;5009926;28;20634;-40
2020/12/11 09:09:13;;;;;;;22.67;15.47;;;7.20;54.30;;;;;;5010343;28;20209;-40
2020/12/11 09:11:38;;;;;;;24.90;15.97;;;7.50;54.80;;;;;;5009127;28;20210;-40
2020/12/11 09:14:04;;;;;;;21.33;14.67;;;7.50;54.30;;;;;;5012608;28;20272;-39
2020/12/11 09:16:29;;;;;;;22.47;15.50;;;7.60;54.50;;;;;;5007328;28;20222;-39
2020/12/11 09:18:55;;;;;;;21.23;13.93;;;8.00;54.40;;;;;;5011105;28;20255;-39
2020/12/11 09:21:21;;;;;;;18.87;13.87;;;8.30;53.00;;;;;;5010740;28;20197;-39
2020/12/11 09:23:46;;;;;;;19.97;13.87;;;8.50;52.70;;;;;;5011641;28;20205;-40
2020/12/11 09:26:12;;;;;;;19.93;13.73;;;8.70;52.10;;;;;;5010472;28;20202;-39
2020/12/11 09:28:40;;;;;;;20.63;13.77;;;8.60;51.80;;;;;;5004819;28;20208;-39
2020/12/11 09:31:06;;;;;;;24.90;15.30;;;8.60;52.20;;;;;;5005140;28;20253;-40
2020/12/11 09:33:37;;;;;;;24.73;16.10;;;8.60;52.10;;;;;;5008518;28;20445;-40
2020/12/11 09:36:03;;;;;;;22.50;14.43;;;8.60;52.40;;;;;;5011427;28;20193;-41
2020/12/11 09:38:29;;;;;;;18.70;13.53;;;8.50;52.30;;;;;;5008816;28;20489;-41
2020/12/11 09:41:00;;;;;;;25.17;15.73;;;8.40;51.70;;;;;;5010920;28;20453;-41
2020/12/11 09:48:56;;;;;;;17.20;11.50;;;7.70;53.10;;;;;;4999400;28;20520;-41
2020/12/11 09:54:07;;;;;;;21.33;13.47;;;7.80;54.40;;;;;;5010402;28;20449;-41
2020/12/11 09:56:33;;;;;;;18.73;13.00;;;8.20;53.50;;;;;;5009214;28;20499;-40
2020/12/11 09:59:05;;;;;;;21.63;14.40;;;8.30;52.90;;;;;;5009685;28;20817;-41
2020/12/11 10:01:46;;;;;;;19.43;13.60;;;8.40;53.00;;;;;;5003442;28;20194;-41
2020/12/11 10:04:12;;;;;;;21.40;13.97;;;8.40;52.30;;;;;;5006188;28;20506;-41
2020/12/11 10:06:37;;;;;;;20.63;14.33;;;8.40;52.90;;;;;;5006184;28;20968;-41
2020/12/11 10:09:03;;;;;;;22.13;16.13;;;8.20;52.60;;;;;;4996986;28;20205;-41
2020/12/11 10:11:29;;;;;;;25.10;16.40;;;8.00;52.60;;;;;;5000741;28;20199;-41
2020/12/11 10:14:11;;;;;;;21.33;14.73;;;7.90;53.60;;;;;;5009416;28;20206;-41
2020/12/11 10:16:37;;;;;;;22.50;14.80;;;7.90;53.60;;;;;;5011465;28;20217;-41
2020/12/11 10:19:04;;;;;;;19.60;13.77;;;7.70;54.10;;;;;;5008644;28;20443;-41
2020/12/11 10:21:30;;;;;;;21.53;13.33;;;7.80;54.30;;;;;;5009130;28;20495;-41
2020/12/11 10:23:56;;;;;;;23.43;15.50;;;8.20;54.20;;;;;;5010278;28;20928;-41
2020/12/11 10:26:21;;;;;;;21.10;14.13;;;8.20;53.60;;;;;;5010149;28;20432;-41
2020/12/11 10:28:47;;;;;;;22.70;14.23;;;8.30;53.70;;;;;;5021944;28;20194;-41
2020/12/11 10:31:12;;;;;;;19.37;12.83;;;8.10;53.70;;;;;;5006713;28;20204;-41
2020/12/11 10:33:38;;;;;;;25.10;15.20;;;7.70;53.50;;;;;;5009648;28;20202;-41
2020/12/11 10:36:04;;;;;;;18.83;13.07;;;7.40;54.90;;;;;;5008184;28;20225;-41
2020/12/11 10:38:29;;;;;;;19.57;13.37;;;7.60;55.30;;;;;;5009590;28;20287;-41
2020/12/11 10:40:55;;;;;;;19.90;13.70;;;7.60;55.10;;;;;;5006597;28;20240;-41
2020/12/11 10:43:20;;;;;;;22.60;13.87;;;7.60;55.10;;;;;;5010322;28;20194;-41
2020/12/11 10:45:46;;;;;;;20.00;13.60;;;7.50;55.30;;;;;;5008378;28;20196;-41
2020/12/11 10:48:11;;;;;;;19.83;14.03;;;7.60;55.30;;;;;;5007649;28;20230;-41
2020/12/11 10:50:37;;;;;;;20.80;14.73;;;7.40;55.50;;;;;;5009738;28;20570;-40
2020/12/11 10:53:03;;;;;;;18.77;13.77;;;7.20;55.80;;;;;;5008339;28;20190;-41
2020/12/11 10:55:28;;;;;;;17.50;12.40;;;7.00;56.50;;;;;;5008632;28;20201;-41
2020/12/11 10:57:54;;;;;;;21.27;14.00;;;6.90;57.10;;;;;;5006068;28;20272;-40
2020/12/11 11:00:20;;;;;;;19.53;12.40;;;7.30;56.80;;;;;;5010733;28;20198;-40
2020/12/11 11:02:46;;;;;;;22.30;15.37;;;7.70;56.10;;;;;;5010695;28;20201;-39
2020/12/11 11:05:12;;;;;;;24.07;13.90;;;7.60;55.80;;;;;;5009140;28;20813;-40
2020/12/11 11:07:37;;;;;;;18.77;13.80;;;7.80;55.20;;;;;;5007777;28;20225;-40
2020/12/11 11:12:43;;;;;;;23.40;14.60;;;8.00;54.30;;;;;;5008169;28;20297;-40
2020/12/11 11:28:27;;;;;;;19.63;12.90;;;7.90;54.60;;;;;;5005704;28;20436;-40
2020/12/11 11:30:53;;;;;;;22.37;14.80;;;7.80;55.30;;;;;;5011871;28;20950;-39
2020/12/11 11:33:19;;;;;;;21.90;14.30;;;8.00;54.70;;;;;;5030240;28;20189;-40
2020/12/11 11:35:46;;;;;;;21.03;14.10;;;8.10;54.80;;;;;;5007517;28;20605;-40
2020/12/11 11:38:12;;;;;;;22.53;14.63;;;8.30;54.30;;;;;;5010302;28;20225;-39
2020/12/11 11:40:39;;;;;;;25.00;13.90;;;7.80;55.10;;;;;;5010717;28;20437;-39
2020/12/11 11:43:06;;;;;;;21.23;13.90;;;7.30;55.70;;;;;;5018318;28;20911;-39
2020/12/11 11:45:35;;;;;;;22.73;14.83;;;6.90;57.10;;;;;;5014197;28;20447;-39
2020/12/11 11:48:04;;;;;;;19.27;14.00;;;6.50;58.00;;;;;;5012369;28;20445;-39
2020/12/11 11:53:16;;;;;;;24.90;14.10;;;6.40;58.10;;;;;;5013592;28;20523;-39
2020/12/11 11:55:42;;;;;;;22.30;14.80;;;6.70;58.50;;;;;;5011679;28;20528;-39
2020/12/11 11:58:09;;;;;;;23.10;15.30;;;7.00;58.40;;;;;;5011174;28;21167;-39
2020/12/11 12:00:34;;;;;;;22.80;13.33;;;7.00;57.80;;;;;;5019361;28;20992;-39
2020/12/11 12:03:00;;;;;;;19.43;13.03;;;7.00;58.40;;;;;;5013066;28;20524;-41
2020/12/11 12:05:25;;;;;;;23.60;14.83;;;7.20;58.60;;;;;;5012811;28;20634;-39
2020/12/11 12:07:51;;;;;;;21.70;14.10;;;7.20;58.10;;;;;;5010146;28;20269;-39
2020/12/11 12:10:16;;;;;;;21.57;14.47;;;7.30;58.20;;;;;;5013664;28;20205;-39
2020/12/11 12:12:43;;;;;;;20.67;13.67;;;7.20;57.90;;;;;;5011913;28;20297;-39
2020/12/11 12:15:12;;;;;;;24.00;15.13;;;7.20;58.60;;;;;;5014379;28;20908;-40
2020/12/11 12:17:54;;;;;;;24.10;14.40;;;7.40;58.30;;;;;;5012140;28;20519;-39
2020/12/11 12:20:30;;;;;;;19.50;13.30;;;7.60;57.80;;;;;;5003071;28;20445;-39
2020/12/11 12:30:47;;;;;;;23.60;15.87;;;8.40;56.20;;;;;;5011778;28;20444;-39
2020/12/11 12:43:57;;;;;;;21.83;15.03;;;7.70;57.30;;;;;;5010946;28;20611;-39
2020/12/11 12:46:23;;;;;;;20.17;14.97;;;7.60;58.00;;;;;;5007463;28;20472;-40
2020/12/11 12:48:48;;;;;;;23.63;15.03;;;7.90;57.80;;;;;;5007508;28;20894;-39
2020/12/11 12:51:15;;;;;;;24.90;14.73;;;8.00;57.80;;;;;;5010368;28;20244;-40
2020/12/11 12:53:40;;;;;;;20.10;14.33;;;8.50;57.30;;;;;;5007652;28;20297;-40
2020/12/11 12:58:59;;;;;;;23.03;14.00;;;8.80;56.30;;;;;;5011553;28;20773;-39
2020/12/11 13:06:55;;;;;;;17.67;12.20;;;9.00;56.70;;;;;;5009758;28;20566;-40
2020/12/11 13:09:20;;;;;;;23.57;14.27;;;9.40;56.20;;;;;;5011015;28;20200;-40
2020/12/11 13:11:50;;;;;;;16.10;12.97;;;9.60;55.20;;;;;;5010689;28;20190;-41
2020/12/11 13:14:17;;;;;;;17.03;12.40;;;9.80;54.60;;;;;;5012384;28;20335;-40
2020/12/11 13:16:42;;;;;;;17.80;13.20;;;9.80;54.30;;;;;;5012515;28;20531;-40
2020/12/11 13:19:12;;;;;;;23.40;14.00;;;10.00;52.90;;;;;;5010165;28;20514;-40
2020/12/11 13:21:43;;;;;;;21.03;14.57;;;10.10;52.70;;;;;;5027834;28;20424;-40
2020/12/11 13:26:54;;;;;;;21.43;14.00;;;9.40;53.60;;;;;;5000105;28;20520;-40
2020/12/11 13:29:20;;;;;;;22.97;14.10;;;9.00;55.10;;;;;;5012165;28;20439;-40
2020/12/11 13:31:46;;;;;;;34.40;16.57;;;8.80;55.80;;;;;;5011496;28;20428;-40
2020/12/11 13:34:11;;;;;;;21.20;15.03;;;8.60;56.30;;;;;;5012537;28;20218;-40
2020/12/11 13:36:37;;;;;;;21.40;15.13;;;8.80;56.30;;;;;;5010766;28;20190;-40